L W Nelson — WDC8149 — position and weather

sailwx.info

Track history (hours):
 
Tides and Currents Weather Stations Pressure Air Temp Water Temp Dewpoint Dewpoint Depression Visibility Wind Speed Wind Dir Waves Ship Positions

L W Nelson

Owner: MARIGOLD TUGS INC, MOBILE, AL. More information available from US FCC via Universal Licensing System and Coast Guard Vessel Documentation Center.

Last reported at 2017-Dec-24 12:14 UTC. Time now 2018-Jun-25 00:17 UTC.
Position N 29°34' W 090°29'.
Warning: this ship's position is months out of date.

Length 17 m; draft 2.8 m.

Type: Ship (hazmat cat B). MMSI: 367082430.

Date/timePositionNaut miles runAvg speedWind from/ knotsBaromVisibWave heightAir tempDewpointWater temp
2017-Dec-24 12:14N 29°34' W 090°29'1 4.5
2017-Dec-24 11:59N 29°34' W 090°30'2 4.4
2017-Dec-24 11:30N 29°34' W 090°33'2 3.6
2017-Dec-24 11:00N 29°34' W 090°35'2 3.5
2017-Dec-24 10:30N 29°35' W 090°37'2 3.9
2017-Dec-24 10:00N 29°35' W 090°39'2 4.1
2017-Dec-24 09:30N 29°36' W 090°41'1 3.0
2017-Dec-24 09:00N 29°36' W 090°43'2 3.9
2017-Dec-24 08:30N 29°34' W 090°43'2 4.2
2017-Dec-24 08:00N 29°33' W 090°45'2 4.1
2017-Dec-24 07:30N 29°32' W 090°47'2 4.9
2017-Dec-24 07:00N 29°32' W 090°50'2 4.6
2017-Dec-24 06:29N 29°32' W 090°53'61 2.4
2017-Dec-23 04:39N 29°50' W 092°01'1 4.1
2017-Dec-23 04:30N 29°49' W 092°01'0 0.2
2017-Dec-23 01:58N 29°49' W 092°02'2 3.8
2017-Dec-23 01:30N 29°49' W 092°04'2 4.6
2017-Dec-23 01:00N 29°48' W 092°06'2 4.6
2017-Dec-23 00:30N 29°47' W 092°09'2 4.1
2017-Dec-23 00:00N 29°47' W 092°11'1 1.7
2017-Dec-22 23:30N 29°47' W 092°12'1 1.8
2017-Dec-22 23:00N 29°47' W 092°13'1 1.4
2017-Dec-22 22:30N 29°48' W 092°13'0 0.0
2017-Dec-22 22:00N 29°48' W 092°13'0 0.1
2017-Dec-22 21:30N 29°48' W 092°13'1 1.7
2017-Dec-22 21:00N 29°48' W 092°14'2 4.2
2017-Dec-22 20:30N 29°49' W 092°17'2 4.0
2017-Dec-22 20:00N 29°50' W 092°18'2 3.6
2017-Dec-22 19:30N 29°51' W 092°20'39 3.7
2017-Dec-22 08:54N 29°56' W 093°05'2 3.5
2017-Dec-22 08:26N 29°56' W 093°07'1 3.4
2017-Dec-22 08:00N 29°56' W 093°08'2 3.4
2017-Dec-22 07:30N 29°57' W 093°10'1 2.3
2017-Dec-22 07:00N 29°58' W 093°11'2 3.6
2017-Dec-22 06:30N 29°59' W 093°12'2 3.5
2017-Dec-22 06:00N 30°00' W 093°14'1 3.0
2017-Dec-22 05:30N 30°02' W 093°14'1 1.9
2017-Dec-22 05:00N 30°02' W 093°15'2 3.3
2017-Dec-22 04:30N 30°04' W 093°16'2 4.1
2017-Dec-22 04:00N 30°05' W 093°17'1 2.9
2017-Dec-22 03:30N 30°06' W 093°19'0 0.3
2017-Dec-22 03:00N 30°06' W 093°18'0 0.1
2017-Dec-22 02:30N 30°06' W 093°18'0 0.0
2017-Dec-22 02:00N 30°06' W 093°18'0 0.0
2017-Dec-22 01:30N 30°06' W 093°18'0 0.0
2017-Dec-22 01:00N 30°06' W 093°18'0 0.1
2017-Dec-22 00:30N 30°06' W 093°18'0 0.1
2017-Dec-22 00:00N 30°06' W 093°19'0 0.0
2017-Dec-21 23:30N 30°06' W 093°19'0 0.0
2017-Dec-21 23:00N 30°06' W 093°19'0 0.2
2017-Dec-21 22:30N 30°06' W 093°19'0 0.1
2017-Dec-21 22:00N 30°06' W 093°19'1 2.1
2017-Dec-21 21:30N 30°06' W 093°19'2 4.7
2017-Dec-21 21:00N 30°04' W 093°21'0 0.8
2017-Dec-21 20:30N 30°04' W 093°22'0 0.0
2017-Dec-21 20:00N 30°04' W 093°22'0 0.0
2017-Dec-21 19:30N 30°04' W 093°21'0 0.0
2017-Dec-21 19:00N 30°04' W 093°22'0 0.0
2017-Dec-21 18:30N 30°04' W 093°22'2 3.3
2017-Dec-21 18:00N 30°05' W 093°20'3 6.1
2017-Dec-21 17:30N 30°06' W 093°17'0 0.4
2017-Dec-21 17:00N 30°06' W 093°17'0 0.0
2017-Dec-21 16:30N 30°06' W 093°17'0 0.0
2017-Dec-21 16:00N 30°06' W 093°17'0 0.0
2017-Dec-21 15:30N 30°06' W 093°17'0 0.1
2017-Dec-21 15:00N 30°06' W 093°17'0 0.0
2017-Dec-21 14:26N 30°06' W 093°17'0 0.0
2017-Dec-21 13:57N 30°06' W 093°17'0 0.0
2017-Dec-21 13:29N 30°06' W 093°17'0 0.0
2017-Dec-21 12:59N 30°06' W 093°17'0 0.0
2017-Dec-21 12:30N 30°06' W 093°17'0 0.0
2017-Dec-21 12:00N 30°06' W 093°17'0 0.0
2017-Dec-21 11:30N 30°06' W 093°17'0 0.0
2017-Dec-21 10:59N 30°06' W 093°17'0 0.0
2017-Dec-21 10:25N 30°06' W 093°17'0 0.0
2017-Dec-21 09:59N 30°06' W 093°17'0 0.0
2017-Dec-21 09:29N 30°06' W 093°17'0 0.0
2017-Dec-21 08:59N 30°06' W 093°17'0 0.0
2017-Dec-21 08:27N 30°06' W 093°17'0 0.0
2017-Dec-21 08:00N 30°06' W 093°17'0 0.0
2017-Dec-21 07:30N 30°06' W 093°17'0 0.0
2017-Dec-21 07:00N 30°06' W 093°17'0 0.0
2017-Dec-21 06:29N 30°06' W 093°17'0 0.0
2017-Dec-21 06:00N 30°06' W 093°17'0 0.0
2017-Dec-21 05:31N 30°06' W 093°17'0 0.0
2017-Dec-21 05:00N 30°06' W 093°17'0 0.0
2017-Dec-21 04:30N 30°06' W 093°17'0 0.0
2017-Dec-21 04:00N 30°06' W 093°17'0 0.0
2017-Dec-21 03:30N 30°06' W 093°17'0 0.0
2017-Dec-21 03:00N 30°06' W 093°17'0 0.0
2017-Dec-21 02:30N 30°06' W 093°17'0 0.0
2017-Dec-21 02:00N 30°06' W 093°17'0 0.0
2017-Dec-21 01:30N 30°06' W 093°17'0 0.0
2017-Dec-21 01:00N 30°06' W 093°17'0 0.0
2017-Dec-21 00:30N 30°06' W 093°17'0 0.0
2017-Dec-21 00:00N 30°06' W 093°17'0 0.0
2017-Dec-20 23:30N 30°06' W 093°17'0 0.0
2017-Dec-20 23:00N 30°06' W 093°17'0 0.0
2017-Dec-20 22:30N 30°06' W 093°17'0 0.0
2017-Dec-20 22:00N 30°06' W 093°17'0 0.0
2017-Dec-20 21:30N 30°06' W 093°17'0 0.0
2017-Dec-20 21:00N 30°06' W 093°17'0 0.0
2017-Dec-20 20:30N 30°06' W 093°17'0 0.0
2017-Dec-20 20:00N 30°06' W 093°17'0 0.0
2017-Dec-20 19:30N 30°06' W 093°17'0 0.0
2017-Dec-20 19:00N 30°06' W 093°17'0 0.0
2017-Dec-20 18:30N 30°06' W 093°17'0 0.0
2017-Dec-20 18:00N 30°06' W 093°17'0 0.0
2017-Dec-20 17:30N 30°06' W 093°17'0 0.0
2017-Dec-20 17:00N 30°06' W 093°17'0 0.0
2017-Dec-20 16:30N 30°06' W 093°17'0 0.0
2017-Dec-20 16:00N 30°06' W 093°17'0 0.0
2017-Dec-20 15:31N 30°06' W 093°17'0 0.0
2017-Dec-20 15:00N 30°06' W 093°17'0 0.0
2017-Dec-20 14:30N 30°06' W 093°17'0 0.0
2017-Dec-20 14:00N 30°06' W 093°17'0 0.0
2017-Dec-20 13:30N 30°06' W 093°17'0 0.0
2017-Dec-20 13:00N 30°06' W 093°17'0 0.0
2017-Dec-20 12:30N 30°06' W 093°17'0 0.0
2017-Dec-20 12:00N 30°06' W 093°17'0 0.0
2017-Dec-20 11:30N 30°06' W 093°17'0 0.0
2017-Dec-20 11:00N 30°06' W 093°17'0 0.0
2017-Dec-20 10:30N 30°06' W 093°17'0 0.0
2017-Dec-20 10:00N 30°06' W 093°17'0 0.0
2017-Dec-20 09:30N 30°06' W 093°17'0 0.0
2017-Dec-20 09:00N 30°06' W 093°17'0 0.0
2017-Dec-20 08:30N 30°06' W 093°17'0 0.0
2017-Dec-20 08:00N 30°06' W 093°17'0 0.0
2017-Dec-20 07:30N 30°06' W 093°17'0 0.0
2017-Dec-20 07:00N 30°06' W 093°17'0 0.0
2017-Dec-20 06:30N 30°06' W 093°17'0 0.0
2017-Dec-20 06:00N 30°06' W 093°17'0 0.0
2017-Dec-20 05:30N 30°06' W 093°17'0 0.0
2017-Dec-20 05:00N 30°06' W 093°17'0 0.0
2017-Dec-20 04:30N 30°06' W 093°17'0 0.0
2017-Dec-20 04:00N 30°06' W 093°17'0 0.0
2017-Dec-20 03:30N 30°06' W 093°17'0 0.0
2017-Dec-20 03:00N 30°06' W 093°17'0 0.0
2017-Dec-20 02:30N 30°06' W 093°17'0 0.0
2017-Dec-20 02:00N 30°06' W 093°17'0 0.0
2017-Dec-20 01:30N 30°06' W 093°17'0 0.0
2017-Dec-20 01:00N 30°06' W 093°17'0 0.0
2017-Dec-20 00:30N 30°06' W 093°17'0 0.0
2017-Dec-20 00:00N 30°06' W 093°17'0 0.0
2017-Dec-19 23:30N 30°06' W 093°17'0 0.0
2017-Dec-19 22:57N 30°06' W 093°17'0 0.0
2017-Dec-19 20:33N 30°06' W 093°17'0 0.2
2017-Dec-19 20:30N 30°06' W 093°17'0 0.0
2017-Dec-19 20:00N 30°06' W 093°17'0 0.0
2017-Dec-19 19:26N 30°06' W 093°17'0 0.2
2017-Dec-19 19:00N 30°06' W 093°17'0 0.0
2017-Dec-19 18:30N 30°06' W 093°17'0 0.0
2017-Dec-19 18:00N 30°06' W 093°17'0 0.0
2017-Dec-19 17:30N 30°06' W 093°17'0 0.0
2017-Dec-19 17:01N 30°06' W 093°17'0 0.0
2017-Dec-19 16:30N 30°06' W 093°17'0 0.0
2017-Dec-19 16:00N 30°06' W 093°17'0 0.0
2017-Dec-19 15:30N 30°06' W 093°17'0 0.0
2017-Dec-19 15:01N 30°06' W 093°17'0 0.0
2017-Dec-19 14:30N 30°06' W 093°17'0 0.0
2017-Dec-19 14:01N 30°06' W 093°17'0 0.0
2017-Dec-19 13:31N 30°06' W 093°17'0 0.0
2017-Dec-19 13:00N 30°06' W 093°17'0 0.0
2017-Dec-19 12:30N 30°06' W 093°17'0 0.0
2017-Dec-19 12:00N 30°06' W 093°17'0 0.0
2017-Dec-19 11:30N 30°06' W 093°17'0 0.0
2017-Dec-19 11:00N 30°06' W 093°17'0 0.0
2017-Dec-19 10:30N 30°06' W 093°17'0 0.0
2017-Dec-19 10:00N 30°06' W 093°17'0 0.0
2017-Dec-19 09:30N 30°06' W 093°17'0 0.0
2017-Dec-19 09:00N 30°06' W 093°17'0 0.0
2017-Dec-19 08:30N 30°06' W 093°17'0 0.0
2017-Dec-19 08:00N 30°06' W 093°17'0 0.0
2017-Dec-19 07:30N 30°06' W 093°17'0 0.0
2017-Dec-19 07:00N 30°06' W 093°17'0 0.0
2017-Dec-19 06:30N 30°06' W 093°17'0 0.0
2017-Dec-19 06:00N 30°06' W 093°17'0 0.0
2017-Dec-19 05:30N 30°06' W 093°17'0 0.0
2017-Dec-19 05:00N 30°06' W 093°17'0 0.0
2017-Dec-19 04:30N 30°06' W 093°17'0 0.0
2017-Dec-19 04:00N 30°06' W 093°17'0 0.0
2017-Dec-19 03:30N 30°06' W 093°17'0 0.0
2017-Dec-19 03:00N 30°06' W 093°17'0 0.0
2017-Dec-19 02:30N 30°06' W 093°17'0 0.0
2017-Dec-19 02:00N 30°06' W 093°17'0 0.0
2017-Dec-19 01:30N 30°06' W 093°17'0 0.0
2017-Dec-19 01:00N 30°06' W 093°17'0 0.0
2017-Dec-19 00:30N 30°06' W 093°17'0 0.0
2017-Dec-19 00:00N 30°06' W 093°17'0 0.0
2017-Dec-18 23:30N 30°06' W 093°17'0 0.0
2017-Dec-18 23:00N 30°06' W 093°17'2 4.2
2017-Dec-18 22:30N 30°06' W 093°19'2 4.5
2017-Dec-18 22:00N 30°04' W 093°21'0 0.7
2017-Dec-18 21:30N 30°04' W 093°21'0 0.0
2017-Dec-18 21:00N 30°04' W 093°21'0 0.0
2017-Dec-18 20:30N 30°04' W 093°21'0 0.0
2017-Dec-18 20:00N 30°04' W 093°21'0 0.0
2017-Dec-18 19:30N 30°04' W 093°21'0 0.9
2017-Dec-18 19:00N 30°04' W 093°22'0 0.1
2017-Dec-18 18:30N 30°04' W 093°22'0 0.8
2017-Dec-18 18:00N 30°04' W 093°22'1 1.3
2017-Dec-18 17:30N 30°04' W 093°23'2 3.2
2017-Dec-18 17:00N 30°04' W 093°25'2 4.0
2017-Dec-18 16:30N 30°04' W 093°27'2 3.7
2017-Dec-18 16:00N 30°04' W 093°29'2 3.9
2017-Dec-18 15:30N 30°04' W 093°32'2 4.0
2017-Dec-18 15:00N 30°04' W 093°34'2 3.9
2017-Dec-18 14:30N 30°04' W 093°36'2 3.1
2017-Dec-18 13:59N 30°04' W 093°38'2 3.6
2017-Dec-18 13:28N 30°04' W 093°40'71 1.7
2017-Dec-16 19:44N 29°32' W 094°54'1 2.8
2017-Dec-16 19:30N 29°32' W 094°54'2 3.3
2017-Dec-16 19:01N 29°34' W 094°55'2 3.7
2017-Dec-16 18:30N 29°35' W 094°56'2 3.9
2017-Dec-16 18:00N 29°37' W 094°57'2 4.5
2017-Dec-16 17:30N 29°39' W 094°58'2 4.7
2017-Dec-16 17:00N 29°41' W 094°59'2 4.6
2017-Dec-16 16:30N 29°43' W 095°01'2 3.6
2017-Dec-16 16:00N 29°44' W 095°03'4 1.8
2017-Dec-16 13:52N 29°46' W 095°06'0 0.1
2017-Dec-16 13:25N 29°46' W 095°06'0 0.5
2017-Dec-16 12:27N 29°47' W 095°06'0 0.1
2017-Dec-16 12:00N 29°47' W 095°06'0 0.0
2017-Dec-16 11:15N 29°47' W 095°06'0 0.0
2017-Dec-16 10:57N 29°47' W 095°06'1 0.2
2017-Dec-16 08:02N 29°46' W 095°06'0 2.1
2017-Dec-16 07:59N 29°46' W 095°06'1 2.3
2017-Dec-16 07:30N 29°46' W 095°05'2 3.8
2017-Dec-16 07:00N 29°44' W 095°03'2 3.7
2017-Dec-16 06:23N 29°43' W 095°01'1 3.3
2017-Dec-16 06:00N 29°42' W 095°00'2 4.4
2017-Dec-16 05:31N 29°40' W 094°59'2 4.8
2017-Dec-16 05:00N 29°38' W 094°58'2 4.6
2017-Dec-16 04:30N 29°36' W 094°57'2 4.8
2017-Dec-16 04:00N 29°34' W 094°55'2 4.8
2017-Dec-16 03:30N 29°32' W 094°54'70 2.9
2017-Dec-15 03:33N 30°03' W 093°42'4 3.7
2017-Dec-15 02:31N 30°04' W 093°37'5 3.6
2017-Dec-15 01:01N 30°04' W 093°31'2 3.6
2017-Dec-15 00:31N 30°04' W 093°29'11 1.8
2017-Dec-14 18:28N 30°04' W 093°16'0 0.0
2017-Dec-14 18:00N 30°04' W 093°16'0 0.0
2017-Dec-14 17:31N 30°04' W 093°16'0 0.0
2017-Dec-14 17:00N 30°04' W 093°16'0 0.1
2017-Dec-14 16:30N 30°04' W 093°16'1 1.0
2017-Dec-14 16:00N 30°04' W 093°16'0 0.0
2017-Dec-14 14:58N 30°04' W 093°16'0 0.1
2017-Dec-14 14:25N 30°04' W 093°16'0 0.3
2017-Dec-14 14:00N 30°04' W 093°16'0 0.1
2017-Dec-14 13:29N 30°04' W 093°16'0 0.5
2017-Dec-14 13:00N 30°03' W 093°16'1 2.8
2017-Dec-14 12:30N 30°02' W 093°15'  
Track history (hours):
 
Tides and Currents Weather Stations Pressure Air Temp Water Temp Dewpoint Dewpoint Depression Visibility Wind Speed Wind Dir Waves Ship Positions

L W Nelson

Owner: MARIGOLD TUGS INC, MOBILE, AL. More information available from US FCC via Universal Licensing System and Coast Guard Vessel Documentation Center.

Last reported at 2017-Dec-24 12:14 UTC. Time now 2018-Jun-25 00:17 UTC.
Position N 29°34' W 090°29'.
Warning: this ship's position is months out of date.

Length 17 m; draft 2.8 m.

Type: Ship (hazmat cat B). MMSI: 367082430.

Date/timePositionNaut miles runAvg speedWind from/ knotsBaromVisibWave heightAir tempDewpointWater temp
2017-Dec-24 12:14N 29°34' W 090°29'1 4.5
2017-Dec-24 11:59N 29°34' W 090°30'2 4.4
2017-Dec-24 11:30N 29°34' W 090°33'2 3.6
2017-Dec-24 11:00N 29°34' W 090°35'2 3.5
2017-Dec-24 10:30N 29°35' W 090°37'2 3.9
2017-Dec-24 10:00N 29°35' W 090°39'2 4.1
2017-Dec-24 09:30N 29°36' W 090°41'1 3.0
2017-Dec-24 09:00N 29°36' W 090°43'2 3.9
2017-Dec-24 08:30N 29°34' W 090°43'2 4.2
2017-Dec-24 08:00N 29°33' W 090°45'2 4.1
2017-Dec-24 07:30N 29°32' W 090°47'2 4.9
2017-Dec-24 07:00N 29°32' W 090°50'2 4.6
2017-Dec-24 06:29N 29°32' W 090°53'61 2.4
2017-Dec-23 04:39N 29°50' W 092°01'1 4.1
2017-Dec-23 04:30N 29°49' W 092°01'0 0.2
2017-Dec-23 01:58N 29°49' W 092°02'2 3.8
2017-Dec-23 01:30N 29°49' W 092°04'2 4.6
2017-Dec-23 01:00N 29°48' W 092°06'2 4.6
2017-Dec-23 00:30N 29°47' W 092°09'2 4.1
2017-Dec-23 00:00N 29°47' W 092°11'1 1.7
2017-Dec-22 23:30N 29°47' W 092°12'1 1.8
2017-Dec-22 23:00N 29°47' W 092°13'1 1.4
2017-Dec-22 22:30N 29°48' W 092°13'0 0.0
2017-Dec-22 22:00N 29°48' W 092°13'0 0.1
2017-Dec-22 21:30N 29°48' W 092°13'1 1.7
2017-Dec-22 21:00N 29°48' W 092°14'2 4.2
2017-Dec-22 20:30N 29°49' W 092°17'2 4.0
2017-Dec-22 20:00N 29°50' W 092°18'2 3.6
2017-Dec-22 19:30N 29°51' W 092°20'39 3.7
2017-Dec-22 08:54N 29°56' W 093°05'2 3.5
2017-Dec-22 08:26N 29°56' W 093°07'1 3.4
2017-Dec-22 08:00N 29°56' W 093°08'2 3.4
2017-Dec-22 07:30N 29°57' W 093°10'1 2.3
2017-Dec-22 07:00N 29°58' W 093°11'2 3.6
2017-Dec-22 06:30N 29°59' W 093°12'2 3.5
2017-Dec-22 06:00N 30°00' W 093°14'1 3.0
2017-Dec-22 05:30N 30°02' W 093°14'1 1.9
2017-Dec-22 05:00N 30°02' W 093°15'2 3.3
2017-Dec-22 04:30N 30°04' W 093°16'2 4.1
2017-Dec-22 04:00N 30°05' W 093°17'1 2.9
2017-Dec-22 03:30N 30°06' W 093°19'0 0.3
2017-Dec-22 03:00N 30°06' W 093°18'0 0.1
2017-Dec-22 02:30N 30°06' W 093°18'0 0.0
2017-Dec-22 02:00N 30°06' W 093°18'0 0.0
2017-Dec-22 01:30N 30°06' W 093°18'0 0.0
2017-Dec-22 01:00N 30°06' W 093°18'0 0.1
2017-Dec-22 00:30N 30°06' W 093°18'0 0.1
2017-Dec-22 00:00N 30°06' W 093°19'0 0.0
2017-Dec-21 23:30N 30°06' W 093°19'0 0.0
2017-Dec-21 23:00N 30°06' W 093°19'0 0.2
2017-Dec-21 22:30N 30°06' W 093°19'0 0.1
2017-Dec-21 22:00N 30°06' W 093°19'1 2.1
2017-Dec-21 21:30N 30°06' W 093°19'2 4.7
2017-Dec-21 21:00N 30°04' W 093°21'0 0.8
2017-Dec-21 20:30N 30°04' W 093°22'0 0.0
2017-Dec-21 20:00N 30°04' W 093°22'0 0.0
2017-Dec-21 19:30N 30°04' W 093°21'0 0.0
2017-Dec-21 19:00N 30°04' W 093°22'0 0.0
2017-Dec-21 18:30N 30°04' W 093°22'2 3.3
2017-Dec-21 18:00N 30°05' W 093°20'3 6.1
2017-Dec-21 17:30N 30°06' W 093°17'0 0.4
2017-Dec-21 17:00N 30°06' W 093°17'0 0.0
2017-Dec-21 16:30N 30°06' W 093°17'0 0.0
2017-Dec-21 16:00N 30°06' W 093°17'0 0.0
2017-Dec-21 15:30N 30°06' W 093°17'0 0.1
2017-Dec-21 15:00N 30°06' W 093°17'0 0.0
2017-Dec-21 14:26N 30°06' W 093°17'0 0.0
2017-Dec-21 13:57N 30°06' W 093°17'0 0.0
2017-Dec-21 13:29N 30°06' W 093°17'0 0.0
2017-Dec-21 12:59N 30°06' W 093°17'0 0.0
2017-Dec-21 12:30N 30°06' W 093°17'0 0.0
2017-Dec-21 12:00N 30°06' W 093°17'0 0.0
2017-Dec-21 11:30N 30°06' W 093°17'0 0.0
2017-Dec-21 10:59N 30°06' W 093°17'0 0.0
2017-Dec-21 10:25N 30°06' W 093°17'0 0.0
2017-Dec-21 09:59N 30°06' W 093°17'0 0.0
2017-Dec-21 09:29N 30°06' W 093°17'0 0.0
2017-Dec-21 08:59N 30°06' W 093°17'0 0.0
2017-Dec-21 08:27N 30°06' W 093°17'0 0.0
2017-Dec-21 08:00N 30°06' W 093°17'0 0.0
2017-Dec-21 07:30N 30°06' W 093°17'0 0.0
2017-Dec-21 07:00N 30°06' W 093°17'0 0.0
2017-Dec-21 06:29N 30°06' W 093°17'0 0.0
2017-Dec-21 06:00N 30°06' W 093°17'0 0.0
2017-Dec-21 05:31N 30°06' W 093°17'0 0.0
2017-Dec-21 05:00N 30°06' W 093°17'0 0.0
2017-Dec-21 04:30N 30°06' W 093°17'0 0.0
2017-Dec-21 04:00N 30°06' W 093°17'0 0.0
2017-Dec-21 03:30N 30°06' W 093°17'0 0.0
2017-Dec-21 03:00N 30°06' W 093°17'0 0.0
2017-Dec-21 02:30N 30°06' W 093°17'0 0.0
2017-Dec-21 02:00N 30°06' W 093°17'0 0.0
2017-Dec-21 01:30N 30°06' W 093°17'0 0.0
2017-Dec-21 01:00N 30°06' W 093°17'0 0.0
2017-Dec-21 00:30N 30°06' W 093°17'0 0.0
2017-Dec-21 00:00N 30°06' W 093°17'0 0.0
2017-Dec-20 23:30N 30°06' W 093°17'0 0.0
2017-Dec-20 23:00N 30°06' W 093°17'0 0.0
2017-Dec-20 22:30N 30°06' W 093°17'0 0.0
2017-Dec-20 22:00N 30°06' W 093°17'0 0.0
2017-Dec-20 21:30N 30°06' W 093°17'0 0.0
2017-Dec-20 21:00N 30°06' W 093°17'0 0.0
2017-Dec-20 20:30N 30°06' W 093°17'0 0.0
2017-Dec-20 20:00N 30°06' W 093°17'0 0.0
2017-Dec-20 19:30N 30°06' W 093°17'0 0.0
2017-Dec-20 19:00N 30°06' W 093°17'0 0.0
2017-Dec-20 18:30N 30°06' W 093°17'0 0.0
2017-Dec-20 18:00N 30°06' W 093°17'0 0.0
2017-Dec-20 17:30N 30°06' W 093°17'0 0.0
2017-Dec-20 17:00N 30°06' W 093°17'0 0.0
2017-Dec-20 16:30N 30°06' W 093°17'0 0.0
2017-Dec-20 16:00N 30°06' W 093°17'0 0.0
2017-Dec-20 15:31N 30°06' W 093°17'0 0.0
2017-Dec-20 15:00N 30°06' W 093°17'0 0.0
2017-Dec-20 14:30N 30°06' W 093°17'0 0.0
2017-Dec-20 14:00N 30°06' W 093°17'0 0.0
2017-Dec-20 13:30N 30°06' W 093°17'0 0.0
2017-Dec-20 13:00N 30°06' W 093°17'0 0.0
2017-Dec-20 12:30N 30°06' W 093°17'0 0.0
2017-Dec-20 12:00N 30°06' W 093°17'0 0.0
2017-Dec-20 11:30N 30°06' W 093°17'0 0.0
2017-Dec-20 11:00N 30°06' W 093°17'0 0.0
2017-Dec-20 10:30N 30°06' W 093°17'0 0.0
2017-Dec-20 10:00N 30°06' W 093°17'0 0.0
2017-Dec-20 09:30N 30°06' W 093°17'0 0.0
2017-Dec-20 09:00N 30°06' W 093°17'0 0.0
2017-Dec-20 08:30N 30°06' W 093°17'0 0.0
2017-Dec-20 08:00N 30°06' W 093°17'0 0.0
2017-Dec-20 07:30N 30°06' W 093°17'0 0.0
2017-Dec-20 07:00N 30°06' W 093°17'0 0.0
2017-Dec-20 06:30N 30°06' W 093°17'0 0.0
2017-Dec-20 06:00N 30°06' W 093°17'0 0.0
2017-Dec-20 05:30N 30°06' W 093°17'0 0.0
2017-Dec-20 05:00N 30°06' W 093°17'0 0.0
2017-Dec-20 04:30N 30°06' W 093°17'0 0.0
2017-Dec-20 04:00N 30°06' W 093°17'0 0.0
2017-Dec-20 03:30N 30°06' W 093°17'0 0.0
2017-Dec-20 03:00N 30°06' W 093°17'0 0.0
2017-Dec-20 02:30N 30°06' W 093°17'0 0.0
2017-Dec-20 02:00N 30°06' W 093°17'0 0.0
2017-Dec-20 01:30N 30°06' W 093°17'0 0.0
2017-Dec-20 01:00N 30°06' W 093°17'0 0.0
2017-Dec-20 00:30N 30°06' W 093°17'0 0.0
2017-Dec-20 00:00N 30°06' W 093°17'0 0.0
2017-Dec-19 23:30N 30°06' W 093°17'0 0.0
2017-Dec-19 22:57N 30°06' W 093°17'0 0.0
2017-Dec-19 20:33N 30°06' W 093°17'0 0.2
2017-Dec-19 20:30N 30°06' W 093°17'0 0.0
2017-Dec-19 20:00N 30°06' W 093°17'0 0.0
2017-Dec-19 19:26N 30°06' W 093°17'0 0.2
2017-Dec-19 19:00N 30°06' W 093°17'0 0.0
2017-Dec-19 18:30N 30°06' W 093°17'0 0.0
2017-Dec-19 18:00N 30°06' W 093°17'0 0.0
2017-Dec-19 17:30N 30°06' W 093°17'0 0.0
2017-Dec-19 17:01N 30°06' W 093°17'0 0.0
2017-Dec-19 16:30N 30°06' W 093°17'0 0.0
2017-Dec-19 16:00N 30°06' W 093°17'0 0.0
2017-Dec-19 15:30N 30°06' W 093°17'0 0.0
2017-Dec-19 15:01N 30°06' W 093°17'0 0.0
2017-Dec-19 14:30N 30°06' W 093°17'0 0.0
2017-Dec-19 14:01N 30°06' W 093°17'0 0.0
2017-Dec-19 13:31N 30°06' W 093°17'0 0.0
2017-Dec-19 13:00N 30°06' W 093°17'0 0.0
2017-Dec-19 12:30N 30°06' W 093°17'0 0.0
2017-Dec-19 12:00N 30°06' W 093°17'0 0.0
2017-Dec-19 11:30N 30°06' W 093°17'0 0.0
2017-Dec-19 11:00N 30°06' W 093°17'0 0.0
2017-Dec-19 10:30N 30°06' W 093°17'0 0.0
2017-Dec-19 10:00N 30°06' W 093°17'0 0.0
2017-Dec-19 09:30N 30°06' W 093°17'0 0.0
2017-Dec-19 09:00N 30°06' W 093°17'0 0.0
2017-Dec-19 08:30N 30°06' W 093°17'0 0.0
2017-Dec-19 08:00N 30°06' W 093°17'0 0.0
2017-Dec-19 07:30N 30°06' W 093°17'0 0.0
2017-Dec-19 07:00N 30°06' W 093°17'0 0.0
2017-Dec-19 06:30N 30°06' W 093°17'0 0.0
2017-Dec-19 06:00N 30°06' W 093°17'0 0.0
2017-Dec-19 05:30N 30°06' W 093°17'0 0.0
2017-Dec-19 05:00N 30°06' W 093°17'0 0.0
2017-Dec-19 04:30N 30°06' W 093°17'0 0.0
2017-Dec-19 04:00N 30°06' W 093°17'0 0.0
2017-Dec-19 03:30N 30°06' W 093°17'0 0.0
2017-Dec-19 03:00N 30°06' W 093°17'0 0.0
2017-Dec-19 02:30N 30°06' W 093°17'0 0.0
2017-Dec-19 02:00N 30°06' W 093°17'0 0.0
2017-Dec-19 01:30N 30°06' W 093°17'0 0.0
2017-Dec-19 01:00N 30°06' W 093°17'0 0.0
2017-Dec-19 00:30N 30°06' W 093°17'0 0.0
2017-Dec-19 00:00N 30°06' W 093°17'0 0.0
2017-Dec-18 23:30N 30°06' W 093°17'0 0.0
2017-Dec-18 23:00N 30°06' W 093°17'2 4.2
2017-Dec-18 22:30N 30°06' W 093°19'2 4.5
2017-Dec-18 22:00N 30°04' W 093°21'0 0.7
2017-Dec-18 21:30N 30°04' W 093°21'0 0.0
2017-Dec-18 21:00N 30°04' W 093°21'0 0.0
2017-Dec-18 20:30N 30°04' W 093°21'0 0.0
2017-Dec-18 20:00N 30°04' W 093°21'0 0.0
2017-Dec-18 19:30N 30°04' W 093°21'0 0.9
2017-Dec-18 19:00N 30°04' W 093°22'0 0.1
2017-Dec-18 18:30N 30°04' W 093°22'0 0.8
2017-Dec-18 18:00N 30°04' W 093°22'1 1.3
2017-Dec-18 17:30N 30°04' W 093°23'2 3.2
2017-Dec-18 17:00N 30°04' W 093°25'2 4.0
2017-Dec-18 16:30N 30°04' W 093°27'2 3.7
2017-Dec-18 16:00N 30°04' W 093°29'2 3.9
2017-Dec-18 15:30N 30°04' W 093°32'2 4.0
2017-Dec-18 15:00N 30°04' W 093°34'2 3.9
2017-Dec-18 14:30N 30°04' W 093°36'2 3.1
2017-Dec-18 13:59N 30°04' W 093°38'2 3.6
2017-Dec-18 13:28N 30°04' W 093°40'71 1.7
2017-Dec-16 19:44N 29°32' W 094°54'1 2.8
2017-Dec-16 19:30N 29°32' W 094°54'2 3.3
2017-Dec-16 19:01N 29°34' W 094°55'2 3.7
2017-Dec-16 18:30N 29°35' W 094°56'2 3.9
2017-Dec-16 18:00N 29°37' W 094°57'2 4.5
2017-Dec-16 17:30N 29°39' W 094°58'2 4.7
2017-Dec-16 17:00N 29°41' W 094°59'2 4.6
2017-Dec-16 16:30N 29°43' W 095°01'2 3.6
2017-Dec-16 16:00N 29°44' W 095°03'4 1.8
2017-Dec-16 13:52N 29°46' W 095°06'0 0.1
2017-Dec-16 13:25N 29°46' W 095°06'0 0.5
2017-Dec-16 12:27N 29°47' W 095°06'0 0.1
2017-Dec-16 12:00N 29°47' W 095°06'0 0.0
2017-Dec-16 11:15N 29°47' W 095°06'0 0.0
2017-Dec-16 10:57N 29°47' W 095°06'1 0.2
2017-Dec-16 08:02N 29°46' W 095°06'0 2.1
2017-Dec-16 07:59N 29°46' W 095°06'1 2.3
2017-Dec-16 07:30N 29°46' W 095°05'2 3.8
2017-Dec-16 07:00N 29°44' W 095°03'2 3.7
2017-Dec-16 06:23N 29°43' W 095°01'1 3.3
2017-Dec-16 06:00N 29°42' W 095°00'2 4.4
2017-Dec-16 05:31N 29°40' W 094°59'2 4.8
2017-Dec-16 05:00N 29°38' W 094°58'2 4.6
2017-Dec-16 04:30N 29°36' W 094°57'2 4.8
2017-Dec-16 04:00N 29°34' W 094°55'2 4.8
2017-Dec-16 03:30N 29°32' W 094°54'70 2.9
2017-Dec-15 03:33N 30°03' W 093°42'4 3.7
2017-Dec-15 02:31N 30°04' W 093°37'5 3.6
2017-Dec-15 01:01N 30°04' W 093°31'2 3.6
2017-Dec-15 00:31N 30°04' W 093°29'11 1.8
2017-Dec-14 18:28N 30°04' W 093°16'0 0.0
2017-Dec-14 18:00N 30°04' W 093°16'0 0.0
2017-Dec-14 17:31N 30°04' W 093°16'0 0.0
2017-Dec-14 17:00N 30°04' W 093°16'0 0.1
2017-Dec-14 16:30N 30°04' W 093°16'1 1.0
2017-Dec-14 16:00N 30°04' W 093°16'0 0.0
2017-Dec-14 14:58N 30°04' W 093°16'0 0.1
2017-Dec-14 14:25N 30°04' W 093°16'0 0.3
2017-Dec-14 14:00N 30°04' W 093°16'0 0.1
2017-Dec-14 13:29N 30°04' W 093°16'0 0.5
2017-Dec-14 13:00N 30°03' W 093°16'1 2.8
2017-Dec-14 12:30N 30°02' W 093°15'  

Dump ship's entire track history